sensor_id;sensor_type;location;lat;lon;timestamp;pressure;altitude;pressure_sealevel;temperature;humidity
44531;BME280;30240;47.418;0.700;2022-07-12T00:00:33;100838.29956054688;;;22.73;58.4
44531;BME280;30240;47.418;0.700;2022-07-12T00:02:58;100836.92016601562;;;22.75;58.48
44531;BME280;30240;47.418;0.700;2022-07-12T00:05:23;100843.51806640625;;;22.66;58.71
44531;BME280;30240;47.418;0.700;2022-07-12T00:07:49;100843.51806640625;;;22.66;58.71
44531;BME280;30240;47.418;0.700;2022-07-12T00:10:13;100844.8486328125;;;22.52;59.3
44531;BME280;30240;47.418;0.700;2022-07-12T00:12:40;100853.39965820312;;;22.47;59.24
44531;BME280;30240;47.418;0.700;2022-07-12T00:15:04;100854.07104492188;;;22.47;59.26
44531;BME280;30240;47.418;0.700;2022-07-12T00:17:28;100851.79443359375;;;22.36;59.61
44531;BME280;30240;47.418;0.700;2022-07-12T00:19:54;100851.79443359375;;;22.36;59.61
44531;BME280;30240;47.418;0.700;2022-07-12T00:22:18;100848.9501953125;;;22.34;59.85
44531;BME280;30240;47.418;0.700;2022-07-12T00:24:43;100842.7490234375;;;22.25;60.06
44531;BME280;30240;47.418;0.700;2022-07-12T00:27:09;100843.17016601562;;;22.18;60.5
44531;BME280;30240;47.418;0.700;2022-07-12T00:29:33;100849.13940429688;;;22.12;60.43
44531;BME280;30240;47.418;0.700;2022-07-12T00:31:59;100843.76831054688;;;22.04;60.78
44531;BME280;30240;47.418;0.700;2022-07-12T00:34:24;100843.76831054688;;;22.04;60.78
44531;BME280;30240;47.418;0.700;2022-07-12T00:36:49;100852.48413085938;;;22.02;60.94
44531;BME280;30240;47.418;0.700;2022-07-12T00:39:15;100846.67358398438;;;22.0;60.93
44531;BME280;30240;47.418;0.700;2022-07-12T00:41:39;100848.2666015625;;;21.96;61.05
44531;BME280;30240;47.418;0.700;2022-07-12T00:44:04;100850.74462890625;;;21.88;61.38
44531;BME280;30240;47.418;0.700;2022-07-12T00:46:29;100850.74462890625;;;21.88;61.38
44531;BME280;30240;47.418;0.700;2022-07-12T00:48:54;100845.00122070312;;;21.82;61.47
44531;BME280;30240;47.418;0.700;2022-07-12T00:51:19;100850.439453125;;;21.82;61.69
44531;BME280;30240;47.418;0.700;2022-07-12T00:53:44;100845.47729492188;;;21.78;61.76
44531;BME280;30240;47.418;0.700;2022-07-12T00:56:09;100841.6015625;;;21.71;61.92
44531;BME280;30240;47.418;0.700;2022-07-12T00:58:33;100841.6015625;;;21.71;61.92
44531;BME280;30240;47.418;0.700;2022-07-12T01:00:58;100836.474609375;;;21.71;61.89
44531;BME280;30240;47.418;0.700;2022-07-12T01:03:24;100837.20092773438;;;21.69;62.01
44531;BME280;30240;47.418;0.700;2022-07-12T01:05:49;100839.36157226562;;;21.62;62.33
44531;BME280;30240;47.418;0.700;2022-07-12T01:08:14;100836.48681640625;;;21.58;62.42
44531;BME280;30240;47.418;0.700;2022-07-12T01:10:39;100836.48681640625;;;21.58;62.42
44531;BME280;30240;47.418;0.700;2022-07-12T01:13:03;100839.76440429688;;;21.59;62.3
44531;BME280;30240;47.418;0.700;2022-07-12T01:15:28;100847.77221679688;;;21.55;62.43
44531;BME280;30240;47.418;0.700;2022-07-12T01:17:54;100844.61059570312;;;21.53;62.41
44531;BME280;30240;47.418;0.700;2022-07-12T01:20:19;100838.4033203125;;;21.53;62.51
44531;BME280;30240;47.418;0.700;2022-07-12T01:22:50;100838.4033203125;;;21.53;62.51
44531;BME280;30240;47.418;0.700;2022-07-12T01:25:09;100839.08081054688;;;21.47;62.87
44531;BME280;30240;47.418;0.700;2022-07-12T01:27:37;100844.42138671875;;;21.43;62.79
44531;BME280;30240;47.418;0.700;2022-07-12T01:30:01;100843.90869140625;;;21.36;63.12
44531;BME280;30240;47.418;0.700;2022-07-12T01:32:24;100842.34619140625;;;21.37;63.01
44531;BME280;30240;47.418;0.700;2022-07-12T01:34:50;100842.34619140625;;;21.37;63.01
44531;BME280;30240;47.418;0.700;2022-07-12T01:37:14;100838.2080078125;;;21.38;62.87
44531;BME280;30240;47.418;0.700;2022-07-12T01:39:38;100836.04736328125;;;21.36;63.18
44531;BME280;30240;47.418;0.700;2022-07-12T01:42:04;100837.92724609375;;;21.31;63.25
44531;BME280;30240;47.418;0.700;2022-07-12T01:44:28;100842.41333007812;;;21.2;63.58
44531;BME280;30240;47.418;0.700;2022-07-12T01:46:54;100842.41333007812;;;21.2;63.58
44531;BME280;30240;47.418;0.700;2022-07-12T01:49:19;100840.15502929688;;;21.12;63.9
44531;BME280;30240;47.418;0.700;2022-07-12T01:51:43;100841.73583984375;;;21.07;64.01
44531;BME280;30240;47.418;0.700;2022-07-12T01:54:08;100840.7470703125;;;21.14;64.22
44531;BME280;30240;47.418;0.700;2022-07-12T01:56:34;100839.98413085938;;;21.07;64.11
44531;BME280;30240;47.418;0.700;2022-07-12T01:58:59;100846.81396484375;;;21.13;64.03
44531;BME280;30240;47.418;0.700;2022-07-12T02:01:24;100846.81396484375;;;21.13;64.03
44531;BME280;30240;47.418;0.700;2022-07-12T02:03:49;100843.98193359375;;;21.09;64.08
44531;BME280;30240;47.418;0.700;2022-07-12T02:06:13;100842.20581054688;;;21.05;64.03
44531;BME280;30240;47.418;0.700;2022-07-12T02:08:41;100847.20458984375;;;21.0;64.58
44531;BME280;30240;47.418;0.700;2022-07-12T02:11:04;100847.84545898438;;;20.91;64.73
44531;BME280;30240;47.418;0.700;2022-07-12T02:13:29;100847.84545898438;;;20.91;64.73
44531;BME280;30240;47.418;0.700;2022-07-12T02:15:53;100851.20239257812;;;20.89;64.81
44531;BME280;30240;47.418;0.700;2022-07-12T02:18:19;100855.126953125;;;20.95;64.78
44531;BME280;30240;47.418;0.700;2022-07-12T02:20:44;100854.63256835938;;;20.92;64.79
44531;BME280;30240;47.418;0.700;2022-07-12T02:23:08;100854.11987304688;;;20.92;64.9
44531;BME280;30240;47.418;0.700;2022-07-12T02:25:34;100854.11987304688;;;20.92;64.9
44531;BME280;30240;47.418;0.700;2022-07-12T02:27:58;100854.38842773438;;;20.85;65.05
44531;BME280;30240;47.418;0.700;2022-07-12T02:30:24;100857.03125;;;20.81;65.22
44531;BME280;30240;47.418;0.700;2022-07-12T02:32:50;100852.30712890625;;;20.77;65.46
44531;BME280;30240;47.418;0.700;2022-07-12T02:35:14;100851.87377929688;;;20.74;65.57
44531;BME280;30240;47.418;0.700;2022-07-12T02:37:46;100851.87377929688;;;20.74;65.57
44531;BME280;30240;47.418;0.700;2022-07-12T02:40:04;100844.58618164062;;;20.74;65.59
44531;BME280;30240;47.418;0.700;2022-07-12T02:42:31;100842.76733398438;;;20.71;65.52
44531;BME280;30240;47.418;0.700;2022-07-12T02:44:55;100849.3896484375;;;20.68;65.82
44531;BME280;30240;47.418;0.700;2022-07-12T02:47:18;100852.64282226562;;;20.65;65.96
44531;BME280;30240;47.418;0.700;2022-07-12T02:49:43;100852.64282226562;;;20.65;65.96
44531;BME280;30240;47.418;0.700;2022-07-12T02:52:08;100854.5654296875;;;20.61;66.21
44531;BME280;30240;47.418;0.700;2022-07-12T02:54:33;100848.76708984375;;;20.58;66.14
44531;BME280;30240;47.418;0.700;2022-07-12T02:56:58;100845.15380859375;;;20.64;66.04
44531;BME280;30240;47.418;0.700;2022-07-12T02:59:23;100850.9033203125;;;20.71;65.81
44531;BME280;30240;47.418;0.700;2022-07-12T03:01:48;100850.9033203125;;;20.71;65.81
44531;BME280;30240;47.418;0.700;2022-07-12T03:04:13;100842.59643554688;;;20.67;66.08
44531;BME280;30240;47.418;0.700;2022-07-12T03:06:38;100839.14184570312;;;20.55;66.22
44531;BME280;30240;47.418;0.700;2022-07-12T03:09:03;100834.88159179688;;;20.51;66.51
44531;BME280;30240;47.418;0.700;2022-07-12T03:11:28;100827.50854492188;;;20.48;66.58
44531;BME280;30240;47.418;0.700;2022-07-12T03:13:53;100827.50854492188;;;20.48;66.58
44531;BME280;30240;47.418;0.700;2022-07-12T03:16:18;100834.8876953125;;;20.43;66.97
44531;BME280;30240;47.418;0.700;2022-07-12T03:18:43;100838.12255859375;;;20.47;66.7
44531;BME280;30240;47.418;0.700;2022-07-12T03:21:09;100837.7685546875;;;20.37;67.1
44531;BME280;30240;47.418;0.700;2022-07-12T03:23:34;100837.04833984375;;;20.41;67.07
44531;BME280;30240;47.418;0.700;2022-07-12T03:25:58;100837.04833984375;;;20.41;67.07
44531;BME280;30240;47.418;0.700;2022-07-12T03:28:23;100844.51293945312;;;20.36;67.18
44531;BME280;30240;47.418;0.700;2022-07-12T03:30:48;100845.79467773438;;;20.3;67.34
44531;BME280;30240;47.418;0.700;2022-07-12T03:33:13;100843.78662109375;;;20.28;67.59
44531;BME280;30240;47.418;0.700;2022-07-12T03:35:38;100843.6279296875;;;20.22;67.74
44531;BME280;30240;47.418;0.700;2022-07-12T03:38:06;100841.49780273438;;;20.18;67.96
44531;BME280;30240;47.418;0.700;2022-07-12T03:42:57;100840.04516601562;;;20.15;68.16
44531;BME280;30240;47.418;0.700;2022-07-12T03:45:19;100839.92309570312;;;20.12;68.32
44531;BME280;30240;47.418;0.700;2022-07-12T03:47:44;100839.17236328125;;;20.09;68.47
44531;BME280;30240;47.418;0.700;2022-07-12T03:50:10;100843.02978515625;;;20.08;68.43
44531;BME280;30240;47.418;0.700;2022-07-12T03:52:34;100843.02978515625;;;20.08;68.43
44531;BME280;30240;47.418;0.700;2022-07-12T03:54:59;100841.34521484375;;;20.09;68.53
44531;BME280;30240;47.418;0.700;2022-07-12T03:57:24;100844.83032226562;;;20.08;68.5
44531;BME280;30240;47.418;0.700;2022-07-12T03:59:48;100852.92358398438;;;20.01;68.73
44531;BME280;30240;47.418;0.700;2022-07-12T04:02:13;100856.01806640625;;;19.91;69.08
44531;BME280;30240;47.418;0.700;2022-07-12T04:04:39;100856.01806640625;;;19.91;69.08
44531;BME280;30240;47.418;0.700;2022-07-12T04:07:04;100859.27124023438;;;19.92;69.09
44531;BME280;30240;47.418;0.700;2022-07-12T04:09:29;100865.8935546875;;;19.87;69.32
44531;BME280;30240;47.418;0.700;2022-07-12T04:11:54;100878.076171875;;;19.84;69.45
44531;BME280;30240;47.418;0.700;2022-07-12T04:14:19;100880.40771484375;;;19.75;69.75
44531;BME280;30240;47.418;0.700;2022-07-12T04:16:43;100880.40771484375;;;19.75;69.75
44531;BME280;30240;47.418;0.700;2022-07-12T04:19:08;100881.77490234375;;;19.61;70.24
44531;BME280;30240;47.418;0.700;2022-07-12T04:21:33;100883.51440429688;;;19.56;70.41
44531;BME280;30240;47.418;0.700;2022-07-12T04:23:58;100886.68212890625;;;19.49;70.64
44531;BME280;30240;47.418;0.700;2022-07-12T04:26:23;100893.5302734375;;;19.53;70.6
44531;BME280;30240;47.418;0.700;2022-07-12T04:28:48;100893.5302734375;;;19.53;70.6
44531;BME280;30240;47.418;0.700;2022-07-12T04:31:13;100898.93798828125;;;19.64;70.3
44531;BME280;30240;47.418;0.700;2022-07-12T04:33:39;100902.43530273438;;;19.56;70.41
44531;BME280;30240;47.418;0.700;2022-07-12T04:36:04;100909.6923828125;;;19.47;70.77
44531;BME280;30240;47.418;0.700;2022-07-12T04:38:28;100907.70874023438;;;19.47;70.67
44531;BME280;30240;47.418;0.700;2022-07-12T04:40:53;100907.70874023438;;;19.47;70.67
44531;BME280;30240;47.418;0.700;2022-07-12T04:43:18;100909.96704101562;;;19.56;70.64
44531;BME280;30240;47.418;0.700;2022-07-12T04:45:43;100914.2333984375;;;19.6;70.55
44531;BME280;30240;47.418;0.700;2022-07-12T04:48:08;100915.234375;;;19.66;70.39
44531;BME280;30240;47.418;0.700;2022-07-12T04:50:33;100918.59130859375;;;19.67;70.31
44531;BME280;30240;47.418;0.700;2022-07-12T04:52:58;100918.59130859375;;;19.67;70.31
44531;BME280;30240;47.418;0.700;2022-07-12T04:55:23;100920.36743164062;;;19.69;70.33
44531;BME280;30240;47.418;0.700;2022-07-12T04:57:48;100922.21069335938;;;19.77;70.23
44531;BME280;30240;47.418;0.700;2022-07-12T05:00:14;100919.64111328125;;;19.88;70.19
44531;BME280;30240;47.418;0.700;2022-07-12T05:02:38;100909.63134765625;;;20.01;69.67
44531;BME280;30240;47.418;0.700;2022-07-12T05:05:04;100909.9853515625;;;20.02;69.51
44531;BME280;30240;47.418;0.700;2022-07-12T05:07:29;100909.9853515625;;;20.02;69.51
44531;BME280;30240;47.418;0.700;2022-07-12T05:09:53;100910.26000976562;;;20.11;69.33
44531;BME280;30240;47.418;0.700;2022-07-12T05:12:18;100898.93798828125;;;20.25;69.14
44531;BME280;30240;47.418;0.700;2022-07-12T05:14:44;100900.45166015625;;;20.37;68.77
44531;BME280;30240;47.418;0.700;2022-07-12T05:17:08;100906.07299804688;;;20.47;68.38
44531;BME280;30240;47.418;0.700;2022-07-12T05:19:33;100906.07299804688;;;20.47;68.38
44531;BME280;30240;47.418;0.700;2022-07-12T05:21:58;100897.9248046875;;;20.54;68.19
44531;BME280;30240;47.418;0.700;2022-07-12T05:24:23;100896.36840820312;;;20.55;68.53
44531;BME280;30240;47.418;0.700;2022-07-12T05:26:48;100896.06323242188;;;20.5;68.45
44531;BME280;30240;47.418;0.700;2022-07-12T05:29:13;100902.89306640625;;;20.54;68.38
44531;BME280;30240;47.418;0.700;2022-07-12T05:31:38;100902.89306640625;;;20.54;68.38
44531;BME280;30240;47.418;0.700;2022-07-12T05:34:03;100900.54931640625;;;20.67;67.96
44531;BME280;30240;47.418;0.700;2022-07-12T05:36:28;100905.31005859375;;;20.74;67.94
44531;BME280;30240;47.418;0.700;2022-07-12T05:38:54;100907.80639648438;;;20.86;67.6
44531;BME280;30240;47.418;0.700;2022-07-12T05:41:18;100914.12353515625;;;20.89;67.43
44531;BME280;30240;47.418;0.700;2022-07-12T05:43:43;100914.12353515625;;;20.89;67.43
44531;BME280;30240;47.418;0.700;2022-07-12T05:46:08;100919.84252929688;;;20.86;67.54
44531;BME280;30240;47.418;0.700;2022-07-12T05:48:33;100920.703125;;;20.95;67.38
44531;BME280;30240;47.418;0.700;2022-07-12T05:50:59;100929.01611328125;;;20.99;67.07
44531;BME280;30240;47.418;0.700;2022-07-12T05:53:23;100933.7158203125;;;21.22;66.47
44531;BME280;30240;47.418;0.700;2022-07-12T05:55:50;100933.7158203125;;;21.22;66.47
44531;BME280;30240;47.418;0.700;2022-07-12T05:58:13;100938.0126953125;;;21.22;66.38
44531;BME280;30240;47.418;0.700;2022-07-12T06:00:38;100939.43481445312;;;21.29;66.28
44531;BME280;30240;47.418;0.700;2022-07-12T06:03:03;100946.31958007812;;;21.34;66.26
44531;BME280;30240;47.418;0.700;2022-07-12T06:05:28;100947.216796875;;;21.47;66.02
44531;BME280;30240;47.418;0.700;2022-07-12T06:07:53;100947.216796875;;;21.47;66.02
44531;BME280;30240;47.418;0.700;2022-07-12T06:10:19;100951.34887695312;;;21.62;65.71
44531;BME280;30240;47.418;0.700;2022-07-12T06:12:44;100947.15576171875;;;21.71;65.52
44531;BME280;30240;47.418;0.700;2022-07-12T06:15:09;100950.22583007812;;;21.85;65.19
44531;BME280;30240;47.418;0.700;2022-07-12T06:17:34;100947.705078125;;;21.93;64.84
44531;BME280;30240;47.418;0.700;2022-07-12T06:19:59;100947.705078125;;;21.93;64.84
44531;BME280;30240;47.418;0.700;2022-07-12T06:22:24;100944.970703125;;;22.28;63.57
44531;BME280;30240;47.418;0.700;2022-07-12T06:24:49;100940.17333984375;;;22.83;61.7
44531;BME280;30240;47.418;0.700;2022-07-12T06:27:14;100943.45092773438;;;23.07;61.16
44531;BME280;30240;47.418;0.700;2022-07-12T06:29:39;100934.39331054688;;;23.55;59.48
44531;BME280;30240;47.418;0.700;2022-07-12T06:32:04;100934.39331054688;;;23.55;59.48
44531;BME280;30240;47.418;0.700;2022-07-12T06:34:29;100938.25073242188;;;24.14;57.96
44531;BME280;30240;47.418;0.700;2022-07-12T06:36:53;100944.45190429688;;;24.48;57.13
44531;BME280;30240;47.418;0.700;2022-07-12T06:39:18;100942.76733398438;;;25.36;54.67
44531;BME280;30240;47.418;0.700;2022-07-12T06:41:44;100944.39086914062;;;24.87;55.53
44531;BME280;30240;47.418;0.700;2022-07-12T06:44:09;100944.67163085938;;;26.02;53.22
44531;BME280;30240;47.418;0.700;2022-07-12T06:46:33;100944.67163085938;;;26.02;53.22
44531;BME280;30240;47.418;0.700;2022-07-12T06:48:59;100947.06420898438;;;26.5;51.77
44531;BME280;30240;47.418;0.700;2022-07-12T06:51:24;100950.67749023438;;;26.33;52.6
44531;BME280;30240;47.418;0.700;2022-07-12T06:53:49;100942.7978515625;;;26.68;50.9
44531;BME280;30240;47.418;0.700;2022-07-12T06:56:13;100939.84375;;;26.06;52.52
44531;BME280;30240;47.418;0.700;2022-07-12T06:58:39;100939.84375;;;26.06;52.52
44531;BME280;30240;47.418;0.700;2022-07-12T07:01:04;100935.85815429688;;;26.32;52.16
44531;BME280;30240;47.418;0.700;2022-07-12T07:03:29;100938.720703125;;;27.41;50.12
44531;BME280;30240;47.418;0.700;2022-07-12T07:05:54;100947.0703125;;;27.14;50.05
44531;BME280;30240;47.418;0.700;2022-07-12T07:08:19;100947.21069335938;;;27.37;50.08
44531;BME280;30240;47.418;0.700;2022-07-12T07:10:44;100947.21069335938;;;27.37;50.08
44531;BME280;30240;47.418;0.700;2022-07-12T07:13:09;100946.62475585938;;;28.07;47.98
44531;BME280;30240;47.418;0.700;2022-07-12T07:15:34;100950.57983398438;;;27.06;50.51
44531;BME280;30240;47.418;0.700;2022-07-12T07:17:59;100954.20532226562;;;27.92;48.24
44531;BME280;30240;47.418;0.700;2022-07-12T07:20:24;100952.06298828125;;;28.13;48.25
44531;BME280;30240;47.418;0.700;2022-07-12T07:22:48;100952.06298828125;;;28.13;48.25
44531;BME280;30240;47.418;0.700;2022-07-12T07:25:14;100956.56127929688;;;28.63;47.14
44531;BME280;30240;47.418;0.700;2022-07-12T07:27:39;100957.61108398438;;;28.14;47.88
44531;BME280;30240;47.418;0.700;2022-07-12T07:30:04;100961.57836914062;;;29.13;46.45
44531;BME280;30240;47.418;0.700;2022-07-12T07:32:29;100961.68823242188;;;28.52;47.22
44531;BME280;30240;47.418;0.700;2022-07-12T07:34:54;100961.68823242188;;;28.52;47.22
44531;BME280;30240;47.418;0.700;2022-07-12T07:37:19;100956.3720703125;;;30.21;44.2
44531;BME280;30240;47.418;0.700;2022-07-12T07:39:43;100959.5458984375;;;29.22;45.81
44531;BME280;30240;47.418;0.700;2022-07-12T07:42:09;100959.85717773438;;;29.67;45.07
44531;BME280;30240;47.418;0.700;2022-07-12T07:44:33;100960.6201171875;;;29.88;44.65
44531;BME280;30240;47.418;0.700;2022-07-12T07:46:59;100960.6201171875;;;29.88;44.65
44531;BME280;30240;47.418;0.700;2022-07-12T07:49:24;100958.23364257812;;;30.97;41.96
44531;BME280;30240;47.418;0.700;2022-07-12T07:51:49;100960.99853515625;;;30.71;42.42
44531;BME280;30240;47.418;0.700;2022-07-12T07:54:14;100965.70434570312;;;30.1;43.69
44531;BME280;30240;47.418;0.700;2022-07-12T07:56:39;100956.53076171875;;;29.41;44.81
44531;BME280;30240;47.418;0.700;2022-07-12T07:59:04;100956.53076171875;;;29.41;44.81
44531;BME280;30240;47.418;0.700;2022-07-12T08:01:29;100962.2802734375;;;31.02;42.13
44531;BME280;30240;47.418;0.700;2022-07-12T08:03:53;100963.61694335938;;;30.97;42.08
44531;BME280;30240;47.418;0.700;2022-07-12T08:06:18;100963.9404296875;;;31.14;42.29
44531;BME280;30240;47.418;0.700;2022-07-12T08:08:44;100965.53955078125;;;30.88;43.08
44531;BME280;30240;47.418;0.700;2022-07-12T08:11:09;100964.59350585938;;;30.81;42.76
44531;BME280;30240;47.418;0.700;2022-07-12T08:13:34;100964.59350585938;;;30.81;42.76
44531;BME280;30240;47.418;0.700;2022-07-12T08:15:58;100965.0390625;;;30.76;42.08
44531;BME280;30240;47.418;0.700;2022-07-12T08:18:23;100969.921875;;;30.55;43.05
44531;BME280;30240;47.418;0.700;2022-07-12T08:20:48;100966.2841796875;;;31.14;41.32
44531;BME280;30240;47.418;0.700;2022-07-12T08:23:14;100968.85986328125;;;31.59;41.09
44531;BME280;30240;47.418;0.700;2022-07-12T08:25:39;100968.85986328125;;;31.59;41.09
44531;BME280;30240;47.418;0.700;2022-07-12T08:28:04;100960.41259765625;;;32.72;38.72
44531;BME280;30240;47.418;0.700;2022-07-12T08:30:29;100956.48193359375;;;31.77;39.24
44531;BME280;30240;47.418;0.700;2022-07-12T08:32:53;100954.55322265625;;;31.64;40.19
44531;BME280;30240;47.418;0.700;2022-07-12T08:35:18;100951.25122070312;;;31.25;40.39
44531;BME280;30240;47.418;0.700;2022-07-12T08:37:44;100951.25122070312;;;31.25;40.39
44531;BME280;30240;47.418;0.700;2022-07-12T08:40:09;100955.87768554688;;;32.3;38.56
44531;BME280;30240;47.418;0.700;2022-07-12T08:42:35;100958.95385742188;;;31.81;38.28
44531;BME280;30240;47.418;0.700;2022-07-12T08:44:59;100957.79418945312;;;31.81;38.49
44531;BME280;30240;47.418;0.700;2022-07-12T08:47:24;100961.81030273438;;;31.28;39.46
44531;BME280;30240;47.418;0.700;2022-07-12T08:50:09;100961.81030273438;;;31.28;39.46
44531;BME280;30240;47.418;0.700;2022-07-12T08:52:27;100964.2822265625;;;31.05;39.75
44531;BME280;30240;47.418;0.700;2022-07-12T08:54:39;100966.0400390625;;;30.95;39.06
44531;BME280;30240;47.418;0.700;2022-07-12T08:57:04;100970.68481445312;;;30.92;39.92
44531;BME280;30240;47.418;0.700;2022-07-12T08:59:29;100976.28173828125;;;32.01;38.26
44531;BME280;30240;47.418;0.700;2022-07-12T09:01:54;100976.28173828125;;;32.01;38.26
44531;BME280;30240;47.418;0.700;2022-07-12T09:04:20;100975.3173828125;;;32.12;38.47
44531;BME280;30240;47.418;0.700;2022-07-12T09:06:44;100972.45483398438;;;33.16;37.42
44531;BME280;30240;47.418;0.700;2022-07-12T09:09:09;100967.98706054688;;;31.95;37.47
44531;BME280;30240;47.418;0.700;2022-07-12T09:11:35;100968.9208984375;;;31.5;37.7
44531;BME280;30240;47.418;0.700;2022-07-12T09:13:58;100968.9208984375;;;31.5;37.7
44531;BME280;30240;47.418;0.700;2022-07-12T09:16:25;100971.89331054688;;;32.91;35.87
44531;BME280;30240;47.418;0.700;2022-07-12T09:18:50;100965.85693359375;;;32.47;36.0
44531;BME280;30240;47.418;0.700;2022-07-12T09:21:22;100962.548828125;;;31.84;36.16
44531;BME280;30240;47.418;0.700;2022-07-12T09:23:52;100964.892578125;;;31.53;36.81
44531;BME280;30240;47.418;0.700;2022-07-12T09:26:07;100964.892578125;;;31.53;36.81
44531;BME280;30240;47.418;0.700;2022-07-12T09:28:28;100975.42114257812;;;32.54;35.33
44531;BME280;30240;47.418;0.700;2022-07-12T09:30:53;100973.32763671875;;;31.73;36.02
44531;BME280;30240;47.418;0.700;2022-07-12T09:33:20;100978.41186523438;;;33.13;34.73
44531;BME280;30240;47.418;0.700;2022-07-12T09:36:00;100981.15844726562;;;30.79;37.26
44531;BME280;30240;47.418;0.700;2022-07-12T09:38:09;100981.15844726562;;;30.79;37.26
44531;BME280;30240;47.418;0.700;2022-07-12T09:40:33;100979.09545898438;;;31.56;36.74
44531;BME280;30240;47.418;0.700;2022-07-12T09:42:59;100972.73559570312;;;33.09;34.92
44531;BME280;30240;47.418;0.700;2022-07-12T09:45:23;100977.48413085938;;;33.51;34.3
44531;BME280;30240;47.418;0.700;2022-07-12T09:47:49;100982.62329101562;;;31.67;36.38
44531;BME280;30240;47.418;0.700;2022-07-12T09:50:14;100983.25805664062;;;32.99;34.48
44531;BME280;30240;47.418;0.700;2022-07-12T09:52:41;100983.25805664062;;;32.99;34.48
44531;BME280;30240;47.418;0.700;2022-07-12T09:55:05;100982.87353515625;;;32.95;34.1
44531;BME280;30240;47.418;0.700;2022-07-12T09:57:30;100983.984375;;;31.82;35.7
44531;BME280;30240;47.418;0.700;2022-07-12T09:59:54;100982.83081054688;;;33.98;32.68
44531;BME280;30240;47.418;0.700;2022-07-12T10:02:21;100983.50830078125;;;34.02;32.24
44531;BME280;30240;47.418;0.700;2022-07-12T10:04:45;100983.50830078125;;;34.02;32.24
44531;BME280;30240;47.418;0.700;2022-07-12T10:07:10;100980.0537109375;;;33.36;33.79
44531;BME280;30240;47.418;0.700;2022-07-12T10:09:34;100978.35693359375;;;33.78;33.24
44531;BME280;30240;47.418;0.700;2022-07-12T10:11:59;100979.18701171875;;;33.54;33.85
44531;BME280;30240;47.418;0.700;2022-07-12T10:14:24;100979.0283203125;;;35.19;30.31
44531;BME280;30240;47.418;0.700;2022-07-12T10:16:50;100979.0283203125;;;35.19;30.31
44531;BME280;30240;47.418;0.700;2022-07-12T10:19:22;100975.01831054688;;;34.74;29.52
44531;BME280;30240;47.418;0.700;2022-07-12T10:21:39;100979.32739257812;;;34.67;28.41
44531;BME280;30240;47.418;0.700;2022-07-12T10:24:48;100985.01586914062;;;34.23;31.64
44531;BME280;30240;47.418;0.700;2022-07-12T10:26:36;100983.48388671875;;;32.72;34.15
44531;BME280;30240;47.418;0.700;2022-07-12T10:28:54;100983.48388671875;;;32.72;34.15
44531;BME280;30240;47.418;0.700;2022-07-12T10:31:19;100981.92749023438;;;33.29;32.11
44531;BME280;30240;47.418;0.700;2022-07-12T10:33:43;100980.2490234375;;;32.65;32.34
44531;BME280;30240;47.418;0.700;2022-07-12T10:36:09;100977.64282226562;;;33.86;30.91
44531;BME280;30240;47.418;0.700;2022-07-12T10:38:34;100981.005859375;;;34.69;31.06
44531;BME280;30240;47.418;0.700;2022-07-12T10:41:18;100981.005859375;;;34.69;31.06
44531;BME280;30240;47.418;0.700;2022-07-12T10:43:25;100976.69677734375;;;34.98;28.47
44531;BME280;30240;47.418;0.700;2022-07-12T10:45:49;100976.15356445312;;;35.55;28.12
44531;BME280;30240;47.418;0.700;2022-07-12T10:48:23;100979.01611328125;;;35.38;26.43
44531;BME280;30240;47.418;0.700;2022-07-12T10:50:52;100977.8564453125;;;35.35;27.36
44531;BME280;30240;47.418;0.700;2022-07-12T10:53:22;100977.8564453125;;;35.35;27.36
44531;BME280;30240;47.418;0.700;2022-07-12T10:55:36;100976.86157226562;;;35.3;28.11
44531;BME280;30240;47.418;0.700;2022-07-12T10:57:58;100975.146484375;;;35.14;27.57
44531;BME280;30240;47.418;0.700;2022-07-12T11:00:19;100976.513671875;;;34.13;28.93
44531;BME280;30240;47.418;0.700;2022-07-12T11:02:44;100976.0009765625;;;35.59;28.39
44531;BME280;30240;47.418;0.700;2022-07-12T11:05:09;100976.0009765625;;;35.59;28.39
44531;BME280;30240;47.418;0.700;2022-07-12T11:07:34;100976.27563476562;;;35.61;27.19
44531;BME280;30240;47.418;0.700;2022-07-12T11:09:59;100978.1005859375;;;35.04;28.79
44531;BME280;30240;47.418;0.700;2022-07-12T11:12:27;100970.93505859375;;;33.79;29.98
44531;BME280;30240;47.418;0.700;2022-07-12T11:14:50;100973.54736328125;;;36.31;27.68
44531;BME280;30240;47.418;0.700;2022-07-12T11:17:14;100960.9130859375;;;34.5;29.98
44531;BME280;30240;47.418;0.700;2022-07-12T11:19:39;100960.9130859375;;;34.5;29.98
44531;BME280;30240;47.418;0.700;2022-07-12T11:22:04;100961.1572265625;;;35.88;28.12
44531;BME280;30240;47.418;0.700;2022-07-12T11:24:32;100964.36157226562;;;35.61;28.61